Time;durP1;ratioP1;P1;durP2;ratioP2;P2;SDS_P1;SDS_P2;PMS_P1;PMS_P2;Temp;Humidity;BMP_temperature;BMP_pressure;BME280_temperature;BME280_humidity;BME280_pressure;Samples;Min_cycle;Max_cycle;Signal;HPM_P1;HPM_P2
2023/06/27 00:02:13;;;;;;;1.02;0.55;;;17.30;93.00;;;;;;5003861;28;20124;-76
2023/06/27 00:04:40;;;;;;;0.60;0.40;;;17.20;93.10;;;;;;4985777;28;20046;-77
2023/06/27 00:07:10;;;;;;;0.82;0.45;;;17.20;93.20;;;;;;5003365;28;20061;-77
2023/06/27 00:09:38;;;;;;;0.52;0.32;;;17.20;93.60;;;;;;4970828;28;20080;-78
2023/06/27 00:12:06;;;;;;;1.40;0.40;;;17.10;93.40;;;;;;5003980;28;20171;-78
2023/06/27 00:14:37;;;;;;;0.70;0.50;;;17.10;93.50;;;;;;4970787;28;20702;-80
2023/06/27 00:17:07;;;;;;;1.48;0.52;;;17.10;93.60;;;;;;5004141;28;20649;-77
2023/06/27 00:19:34;;;;;;;0.70;0.40;;;17.00;93.60;;;;;;4986395;28;20128;-79
2023/06/27 00:22:00;;;;;;;0.32;0.20;;;17.00;94.00;;;;;;5004528;28;20550;-78
2023/06/27 00:24:27;;;;;;;1.55;0.50;;;17.00;93.80;;;;;;5004075;28;20128;-79
2023/06/27 00:26:54;;;;;;;0.55;0.28;;;17.00;93.90;;;;;;5003052;28;20177;-78
2023/06/27 00:29:21;;;;;;;0.63;0.22;;;17.00;93.90;;;;;;5003977;28;20064;-77
2023/06/27 00:31:47;;;;;;;0.98;0.40;;;16.90;94.00;;;;;;5004212;28;20054;-78
2023/06/27 00:34:14;;;;;;;0.98;0.50;;;16.90;94.10;;;;;;5003251;28;20054;-78
2023/06/27 00:36:41;;;;;;;0.77;0.50;;;16.90;94.20;;;;;;5003761;28;20127;-78
2023/06/27 00:39:08;;;;;;;0.77;0.43;;;16.90;94.30;;;;;;5003752;28;20060;-77
2023/06/27 00:41:35;;;;;;;0.82;0.30;;;16.80;94.40;;;;;;5002654;28;20744;-78
2023/06/27 00:44:04;;;;;;;0.70;0.40;;;16.80;94.50;;;;;;5004182;28;20053;-77
2023/06/27 00:46:33;;;;;;;0.55;0.38;;;16.80;94.50;;;;;;4969844;28;20103;-77
2023/06/27 00:49:00;;;;;;;0.57;0.30;;;16.80;94.50;;;;;;4984987;28;20053;-78
2023/06/27 00:51:27;;;;;;;0.73;0.40;;;16.80;94.50;;;;;;4985494;28;20058;-78
2023/06/27 00:53:54;;;;;;;0.77;0.40;;;16.80;94.70;;;;;;4969813;28;20074;-79
2023/06/27 00:56:20;;;;;;;2.22;0.68;;;16.80;94.70;;;;;;5001836;28;20049;-79
2023/06/27 00:58:47;;;;;;;1.05;0.50;;;16.80;95.00;;;;;;4985684;28;20144;-78
2023/06/27 01:01:14;;;;;;;0.70;0.40;;;16.80;94.80;;;;;;5003401;28;20057;-78
2023/06/27 01:03:41;;;;;;;0.75;0.50;;;16.70;94.90;;;;;;5002380;28;20092;-80
2023/06/27 01:06:44;;;;;;;0.75;0.32;;;16.70;95.00;;;;;;5002174;28;20050;-77
2023/06/27 01:09:37;;;;;;;2.15;0.50;;;16.70;95.10;;;;;;4990235;28;20054;-77
2023/06/27 01:12:27;;;;;;;0.63;0.40;;;16.70;95.20;;;;;;4985230;28;20050;-78
2023/06/27 01:14:56;;;;;;;0.75;0.45;;;16.60;95.30;;;;;;4985225;28;20050;-77
2023/06/27 01:17:22;;;;;;;0.47;0.32;;;16.70;95.60;;;;;;4969564;28;20053;-77
2023/06/27 01:19:52;;;;;;;0.77;0.40;;;16.70;95.40;;;;;;4984455;28;20060;-77
2023/06/27 01:22:29;;;;;;;1.67;0.77;;;16.70;95.50;;;;;;4970260;28;20057;-77
2023/06/27 01:24:56;;;;;;;1.17;0.50;;;16.70;95.60;;;;;;4954515;28;20862;-76
2023/06/27 01:27:23;;;;;;;0.70;0.50;;;16.60;95.60;;;;;;4984573;28;20054;-77
2023/06/27 01:29:50;;;;;;;0.52;0.40;;;16.70;95.70;;;;;;4968983;28;20045;-78
2023/06/27 01:32:26;;;;;;;0.40;0.30;;;16.70;96.00;;;;;;4967093;28;20058;-78
2023/06/27 01:35:03;;;;;;;0.77;0.40;;;16.70;95.90;;;;;;4969616;28;20059;-78
2023/06/27 01:37:32;;;;;;;0.70;0.32;;;16.70;96.00;;;;;;4989978;28;20074;-78
2023/06/27 01:40:09;;;;;;;0.57;0.52;;;16.70;95.90;;;;;;4972308;28;20069;-78
2023/06/27 01:42:43;;;;;;;0.45;0.30;;;16.70;96.00;;;;;;4973964;28;20468;-78
2023/06/27 01:45:10;;;;;;;1.52;0.50;;;16.70;96.10;;;;;;4972439;28;20680;-78
2023/06/27 01:47:40;;;;;;;1.13;0.52;;;16.80;96.00;;;;;;4990484;28;20050;-78
2023/06/27 01:50:08;;;;;;;0.25;0.25;;;16.80;96.10;;;;;;4989206;28;20108;-79
2023/06/27 01:52:35;;;;;;;0.77;0.50;;;16.80;96.20;;;;;;4974611;28;20057;-78
2023/06/27 01:55:02;;;;;;;1.00;0.70;;;16.80;96.30;;;;;;5007118;28;20062;-78
2023/06/27 01:57:29;;;;;;;1.35;0.75;;;16.80;96.40;;;;;;4990098;28;20112;-78
2023/06/27 01:59:56;;;;;;;0.82;0.50;;;16.80;96.50;;;;;;5007179;28;20077;-78
2023/06/27 02:02:23;;;;;;;2.25;0.63;;;16.80;96.60;;;;;;5007264;28;20053;-78
2023/06/27 02:04:50;;;;;;;0.50;0.30;;;16.80;96.50;;;;;;4988993;28;20169;-79
2023/06/27 02:07:16;;;;;;;0.52;0.40;;;16.80;96.70;;;;;;4989979;28;20050;-78
2023/06/27 02:09:43;;;;;;;1.50;0.40;;;16.80;96.70;;;;;;4989000;28;20101;-78
2023/06/27 02:12:11;;;;;;;0.30;0.30;;;16.80;96.80;;;;;;4989047;28;20053;-78
2023/06/27 02:14:41;;;;;;;0.88;0.40;;;16.80;96.80;;;;;;5006591;28;20058;-78
2023/06/27 02:17:08;;;;;;;0.70;0.40;;;16.70;96.80;;;;;;5006952;28;20054;-78
2023/06/27 02:19:34;;;;;;;1.60;0.60;;;16.70;96.90;;;;;;4988834;28;20073;-78
2023/06/27 02:22:01;;;;;;;0.68;0.50;;;16.70;96.90;;;;;;4989722;28;20049;-77
2023/06/27 02:24:28;;;;;;;0.43;0.20;;;16.70;97.00;;;;;;4989136;28;20112;-78
2023/06/27 02:26:56;;;;;;;1.05;0.50;;;16.70;97.10;;;;;;5005845;28;20057;-77
2023/06/27 02:29:23;;;;;;;0.70;0.30;;;16.70;97.20;;;;;;5007236;28;20137;-79
2023/06/27 02:31:49;;;;;;;0.70;0.40;;;16.60;97.20;;;;;;5006883;28;20073;-77
2023/06/27 02:34:16;;;;;;;0.68;0.32;;;16.70;97.20;;;;;;5006076;28;20057;-78
2023/06/27 02:36:43;;;;;;;0.70;0.50;;;16.60;97.40;;;;;;5007053;28;20073;-78
2023/06/27 02:39:10;;;;;;;1.30;0.50;;;16.60;97.50;;;;;;4989367;28;20049;-77
2023/06/27 02:41:36;;;;;;;1.50;0.40;;;16.60;97.50;;;;;;5005808;28;20045;-78
2023/06/27 02:44:03;;;;;;;0.90;0.52;;;16.60;97.60;;;;;;4989459;28;20088;-78
2023/06/27 02:46:30;;;;;;;1.02;0.50;;;16.50;97.80;;;;;;4973430;28;20053;-78
2023/06/27 02:48:57;;;;;;;0.30;0.30;;;16.50;98.00;;;;;;4972868;28;20092;-79
2023/06/27 02:51:24;;;;;;;0.50;0.47;;;16.50;98.10;;;;;;5006194;28;20067;-79
2023/06/27 02:53:50;;;;;;;1.13;0.60;;;16.40;98.20;;;;;;4989193;28;20496;-78
2023/06/27 02:56:18;;;;;;;1.00;0.45;;;16.40;98.20;;;;;;5006353;28;20050;-80
2023/06/27 02:58:44;;;;;;;1.13;0.55;;;16.40;98.40;;;;;;5006736;28;20050;-79
2023/06/27 03:01:11;;;;;;;1.10;0.47;;;16.40;98.50;;;;;;5007054;28;20081;-79
2023/06/27 03:03:38;;;;;;;1.08;0.50;;;16.30;98.60;;;;;;5005847;28;20541;-79
2023/06/27 03:06:08;;;;;;;1.40;0.40;;;16.30;98.60;;;;;;5006040;28;20133;-79
2023/06/27 03:08:37;;;;;;;1.25;0.52;;;16.30;98.80;;;;;;5006630;28;20440;-79
2023/06/27 03:11:04;;;;;;;0.80;0.50;;;16.30;98.80;;;;;;5005943;28;20191;-79
2023/06/27 03:13:31;;;;;;;0.47;0.38;;;16.30;98.90;;;;;;5006046;28;20124;-79
2023/06/27 03:15:58;;;;;;;1.35;0.50;;;16.30;99.00;;;;;;4972748;28;20100;-78
2023/06/27 03:18:25;;;;;;;0.20;0.20;;;16.30;99.10;;;;;;5006080;28;20061;-79
2023/06/27 03:20:52;;;;;;;0.77;0.43;;;16.30;99.20;;;;;;4988092;28;20113;-77
2023/06/27 03:23:18;;;;;;;0.82;0.60;;;16.20;99.30;;;;;;5006090;28;20057;-78
2023/06/27 03:25:45;;;;;;;0.93;0.52;;;16.30;99.30;;;;;;5006035;28;20138;-79
2023/06/27 03:28:12;;;;;;;1.40;0.50;;;16.30;99.50;;;;;;5009692;28;20053;-78
2023/06/27 03:30:43;;;;;;;0.88;0.50;;;16.30;99.90;;;;;;5010436;28;20548;-78
2023/06/27 03:33:10;;;;;;;1.45;0.60;;;16.30;99.90;;;;;;5010077;28;20061;-78
2023/06/27 03:35:37;;;;;;;1.08;0.57;;;16.20;99.70;;;;;;4992061;28;20092;-78
2023/06/27 03:38:04;;;;;;;0.70;0.40;;;16.20;99.90;;;;;;4993114;28;20046;-78
2023/06/27 03:40:31;;;;;;;0.70;0.38;;;16.20;99.90;;;;;;5009097;28;20081;-79
2023/06/27 03:42:57;;;;;;;0.93;0.32;;;16.20;99.90;;;;;;5009447;28;20053;-80
2023/06/27 03:45:24;;;;;;;0.73;0.45;;;16.20;99.90;;;;;;4992276;28;20045;-78
2023/06/27 03:47:51;;;;;;;0.55;0.30;;;16.20;99.90;;;;;;4992574;28;20053;-79
2023/06/27 03:50:18;;;;;;;0.70;0.50;;;16.20;99.90;;;;;;5009334;28;20092;-79
2023/06/27 03:52:45;;;;;;;0.50;0.30;;;16.20;99.90;;;;;;5009828;28;20046;-78
2023/06/27 03:55:11;;;;;;;1.73;0.50;;;16.20;99.90;;;;;;5009155;28;20129;-77
2023/06/27 03:57:38;;;;;;;0.40;0.30;;;16.20;99.90;;;;;;5009107;28;20046;-78
2023/06/27 04:00:07;;;;;;;0.95;0.50;;;16.20;99.90;;;;;;5009616;28;20049;-78
2023/06/27 04:02:34;;;;;;;0.68;0.50;;;16.20;99.90;;;;;;5008943;28;20062;-78
2023/06/27 04:05:01;;;;;;;0.77;0.50;;;16.20;99.90;;;;;;5008314;28;20097;-78
2023/06/27 04:07:28;;;;;;;0.70;0.38;;;16.20;99.90;;;;;;5009238;28;20065;-78
2023/06/27 04:09:55;;;;;;;0.95;0.40;;;16.20;99.90;;;;;;5008248;28;20081;-78
2023/06/27 04:12:22;;;;;;;0.82;0.40;;;16.20;99.90;;;;;;5008234;28;20054;-78
2023/06/27 04:14:49;;;;;;;0.90;0.40;;;16.20;99.90;;;;;;5008673;28;20104;-78
2023/06/27 04:17:15;;;;;;;1.30;0.40;;;16.20;99.90;;;;;;5009266;28;20140;-77
2023/06/27 04:19:42;;;;;;;0.55;0.40;;;16.20;99.90;;;;;;4990876;28;20104;-77
2023/06/27 04:22:09;;;;;;;0.43;0.28;;;16.20;99.90;;;;;;5009134;28;20457;-77
2023/06/27 04:24:36;;;;;;;1.33;0.63;;;16.20;99.90;;;;;;5008603;28;20135;-77
2023/06/27 04:27:03;;;;;;;0.77;0.38;;;16.20;99.90;;;;;;5008426;28;20468;-78
2023/06/27 04:29:30;;;;;;;0.88;0.43;;;16.20;99.90;;;;;;4992229;28;20105;-79
2023/06/27 04:31:56;;;;;;;1.10;0.38;;;16.20;99.90;;;;;;5008747;28;20608;-78
2023/06/27 04:34:23;;;;;;;0.60;0.40;;;16.30;99.90;;;;;;5007986;28;20097;-78
2023/06/27 04:36:51;;;;;;;0.40;0.40;;;16.30;99.90;;;;;;5008433;28;20480;-77
2023/06/27 04:39:18;;;;;;;1.63;0.90;;;16.30;99.90;;;;;;5009078;28;20135;-78
2023/06/27 04:41:45;;;;;;;1.27;0.50;;;16.30;99.90;;;;;;5008014;28;20405;-78
2023/06/27 04:44:13;;;;;;;1.48;0.68;;;16.30;99.90;;;;;;5008671;28;20078;-78
2023/06/27 04:46:40;;;;;;;0.73;0.40;;;16.40;99.90;;;;;;5008744;28;20050;-78
2023/06/27 04:49:07;;;;;;;1.58;0.45;;;16.40;99.90;;;;;;4994530;28;20106;-78
2023/06/27 04:51:33;;;;;;;0.57;0.30;;;16.30;99.90;;;;;;4985938;28;20443;-78
2023/06/27 04:54:00;;;;;;;1.00;0.60;;;16.30;99.90;;;;;;4991126;28;20609;-77
2023/06/27 04:56:27;;;;;;;1.02;0.82;;;16.30;99.90;;;;;;5005886;28;20050;-78
2023/06/27 04:58:54;;;;;;;0.70;0.50;;;16.30;99.90;;;;;;5006778;28;20054;-78
2023/06/27 05:01:21;;;;;;;1.10;0.55;;;16.40;99.90;;;;;;4989642;28;20465;-78
2023/06/27 05:03:48;;;;;;;0.68;0.40;;;16.40;99.90;;;;;;4965767;28;20054;-78
2023/06/27 05:06:15;;;;;;;0.60;0.30;;;16.40;99.90;;;;;;4970119;28;20057;-77
2023/06/27 05:08:41;;;;;;;1.00;0.60;;;16.40;99.90;;;;;;4986090;28;20132;-77
2023/06/27 05:11:08;;;;;;;1.10;0.40;;;16.40;99.90;;;;;;4984788;28;20132;-78
2023/06/27 05:13:35;;;;;;;2.03;0.50;;;16.40;99.90;;;;;;4970366;28;20050;-77
2023/06/27 05:16:02;;;;;;;1.45;0.52;;;16.40;99.90;;;;;;4972812;28;20143;-78
2023/06/27 05:18:28;;;;;;;1.00;0.50;;;16.40;99.90;;;;;;4987988;28;20104;-78
2023/06/27 05:20:55;;;;;;;0.88;0.50;;;16.50;99.90;;;;;;4955589;28;20046;-78
2023/06/27 05:23:22;;;;;;;0.77;0.47;;;16.50;99.90;;;;;;4968795;28;20485;-78
2023/06/27 05:25:49;;;;;;;0.45;0.40;;;16.50;99.90;;;;;;5002193;28;20104;-77
2023/06/27 05:28:16;;;;;;;1.58;0.73;;;16.50;99.90;;;;;;4971473;28;20050;-78
2023/06/27 05:30:43;;;;;;;1.38;0.47;;;16.60;99.90;;;;;;4972537;28;20074;-77
2023/06/27 05:33:10;;;;;;;0.47;0.30;;;16.60;99.90;;;;;;4971737;28;20128;-78
2023/06/27 05:35:37;;;;;;;1.10;0.50;;;16.70;99.90;;;;;;4987458;28;20425;-78
2023/06/27 05:38:04;;;;;;;0.47;0.35;;;16.80;99.90;;;;;;4969136;28;20061;-78
2023/06/27 05:40:31;;;;;;;0.65;0.45;;;16.80;99.90;;;;;;4933548;28;20069;-78
2023/06/27 05:42:58;;;;;;;1.10;0.65;;;17.00;99.90;;;;;;4977758;28;20080;-78
2023/06/27 05:45:24;;;;;;;0.98;0.55;;;17.10;99.90;;;;;;4972202;28;20448;-78
2023/06/27 05:47:51;;;;;;;0.82;0.57;;;17.10;99.90;;;;;;4972085;28;20111;-79
2023/06/27 05:50:18;;;;;;;1.00;0.60;;;17.20;99.90;;;;;;4971007;28;20074;-77
2023/06/27 05:52:45;;;;;;;0.65;0.50;;;17.30;99.90;;;;;;4987964;28;20156;-78
2023/06/27 05:55:12;;;;;;;0.88;0.40;;;17.40;99.90;;;;;;5004214;28;20196;-79
2023/06/27 05:57:38;;;;;;;0.82;0.38;;;17.50;99.90;;;;;;5003214;28;20632;-78
2023/06/27 06:00:10;;;;;;;0.65;0.43;;;17.60;99.90;;;;;;4968424;28;20056;-78
2023/06/27 06:02:38;;;;;;;1.25;0.57;;;17.80;99.90;;;;;;4984576;28;20056;-77
2023/06/27 06:05:07;;;;;;;1.55;0.68;;;17.90;99.90;;;;;;4967880;28;20068;-78
2023/06/27 06:07:34;;;;;;;1.45;0.70;;;18.00;99.90;;;;;;4954620;28;20073;-79
2023/06/27 06:10:02;;;;;;;1.10;0.47;;;18.00;99.90;;;;;;4970644;28;20057;-78
2023/06/27 06:12:28;;;;;;;1.27;0.63;;;18.10;99.90;;;;;;4983370;28;20445;-78
2023/06/27 06:14:55;;;;;;;1.35;0.75;;;18.20;99.90;;;;;;4994984;28;20050;-79
2023/06/27 06:17:22;;;;;;;1.20;0.50;;;18.30;99.90;;;;;;4989383;28;20559;-78
2023/06/27 06:19:49;;;;;;;0.98;0.47;;;18.30;99.90;;;;;;4993687;28;20050;-78
2023/06/27 06:22:16;;;;;;;1.50;0.60;;;18.30;99.90;;;;;;4983745;28;20205;-78
2023/06/27 06:24:42;;;;;;;0.80;0.40;;;18.30;99.90;;;;;;4997293;28;20440;-78
2023/06/27 06:27:09;;;;;;;1.33;0.35;;;18.40;99.90;;;;;;4971038;28;20049;-78
2023/06/27 06:29:36;;;;;;;0.95;0.45;;;18.50;99.90;;;;;;5010210;28;20042;-77
2023/06/27 06:32:03;;;;;;;1.15;0.50;;;18.50;99.90;;;;;;4973301;28;20616;-78
2023/06/27 06:34:30;;;;;;;0.85;0.40;;;18.60;99.90;;;;;;4970319;28;20050;-77
2023/06/27 06:36:56;;;;;;;1.42;0.60;;;18.60;99.90;;;;;;4985788;28;20046;-77
2023/06/27 06:39:23;;;;;;;1.20;0.60;;;18.70;99.60;;;;;;4975063;28;20084;-78
2023/06/27 06:41:51;;;;;;;0.93;0.60;;;18.60;99.40;;;;;;4969605;28;20137;-77
2023/06/27 06:44:17;;;;;;;1.67;0.90;;;18.60;99.60;;;;;;4991156;28;20053;-78
2023/06/27 06:46:44;;;;;;;1.73;0.88;;;18.60;99.60;;;;;;4954835;28;20046;-78
2023/06/27 06:49:11;;;;;;;1.05;0.50;;;18.60;99.80;;;;;;4969847;28;20096;-78
2023/06/27 06:51:38;;;;;;;1.30;0.50;;;18.70;99.60;;;;;;4970208;28;20061;-78
2023/06/27 06:54:05;;;;;;;1.05;0.65;;;18.70;99.70;;;;;;4970575;28;20081;-79
2023/06/27 06:56:31;;;;;;;0.82;0.60;;;18.80;99.50;;;;;;4986245;28;20061;-79
2023/06/27 06:58:59;;;;;;;1.08;0.45;;;18.80;99.30;;;;;;4971342;28;20050;-79
2023/06/27 07:01:28;;;;;;;1.65;0.75;;;18.80;99.20;;;;;;4970043;28;20050;-78
2023/06/27 07:03:55;;;;;;;2.13;1.05;;;18.80;99.20;;;;;;4999945;28;20429;-78
2023/06/27 07:06:22;;;;;;;1.83;0.93;;;18.90;99.40;;;;;;4951070;28;20342;-78
2023/06/27 07:08:49;;;;;;;1.48;0.70;;;19.00;99.30;;;;;;4970148;28;20437;-79
2023/06/27 07:11:15;;;;;;;1.75;0.80;;;19.10;99.30;;;;;;4971786;28;20568;-78
2023/06/27 07:13:42;;;;;;;1.30;0.73;;;19.20;99.10;;;;;;4970032;28;20053;-79
2023/06/27 07:16:09;;;;;;;1.20;0.70;;;19.30;99.10;;;;;;4954601;28;20050;-78
2023/06/27 07:18:35;;;;;;;1.35;0.80;;;19.20;99.10;;;;;;4986994;28;20560;-78
2023/06/27 07:21:02;;;;;;;1.38;0.70;;;19.20;99.00;;;;;;4970105;28;20053;-79
2023/06/27 07:23:29;;;;;;;1.13;0.50;;;19.30;99.00;;;;;;4970163;28;20049;-79
2023/06/27 07:25:56;;;;;;;2.65;1.00;;;19.40;98.80;;;;;;5003317;28;20100;-78
2023/06/27 07:28:23;;;;;;;1.13;0.68;;;19.40;98.50;;;;;;4964845;28;20086;-78
2023/06/27 07:30:49;;;;;;;1.70;0.95;;;19.40;98.70;;;;;;5003707;28;20042;-79
2023/06/27 07:33:16;;;;;;;1.90;1.00;;;19.40;98.50;;;;;;4985687;28;20061;-79
2023/06/27 07:35:45;;;;;;;1.80;0.65;;;19.40;98.40;;;;;;5002039;28;20046;-79
2023/06/27 07:38:12;;;;;;;1.75;0.60;;;19.50;98.10;;;;;;4965983;28;20132;-79
2023/06/27 07:40:38;;;;;;;1.88;0.70;;;19.50;98.20;;;;;;4977747;28;20053;-78
2023/06/27 07:43:05;;;;;;;2.38;0.80;;;19.40;98.10;;;;;;4997399;28;20054;-79
2023/06/27 07:45:32;;;;;;;1.90;1.05;;;19.50;98.20;;;;;;4992061;28;20134;-78
2023/06/27 07:48:00;;;;;;;1.65;0.98;;;19.60;98.40;;;;;;5015849;28;20085;-79
2023/06/27 07:50:27;;;;;;;1.10;0.60;;;19.60;98.30;;;;;;4990280;28;20123;-79
2023/06/27 07:52:54;;;;;;;1.10;0.68;;;19.70;97.90;;;;;;4998206;28;20046;-78
2023/06/27 07:55:20;;;;;;;1.98;0.88;;;19.80;97.80;;;;;;4985548;28;20085;-79
2023/06/27 07:57:47;;;;;;;2.20;0.85;;;19.80;97.40;;;;;;4985787;28;20049;-79
2023/06/27 08:00:15;;;;;;;2.45;1.00;;;20.00;97.00;;;;;;4981953;28;20483;-81
2023/06/27 08:02:42;;;;;;;1.92;1.00;;;20.10;97.20;;;;;;5000242;28;20140;-80
2023/06/27 08:05:09;;;;;;;1.95;0.82;;;20.00;96.80;;;;;;4985023;28;20054;-81
2023/06/27 08:07:36;;;;;;;1.60;1.08;;;20.10;97.10;;;;;;4986573;28;20052;-81
2023/06/27 08:10:04;;;;;;;1.77;0.95;;;20.00;96.90;;;;;;4985679;28;20054;-80
2023/06/27 08:12:31;;;;;;;1.17;0.80;;;20.00;96.50;;;;;;4970442;28;20512;-80
2023/06/27 08:14:57;;;;;;;2.30;0.80;;;20.00;96.40;;;;;;4973616;28;20136;-79
2023/06/27 08:17:24;;;;;;;1.77;0.75;;;20.10;96.50;;;;;;5007811;28;20042;-79
2023/06/27 08:19:51;;;;;;;1.52;0.70;;;20.10;95.80;;;;;;4988623;28;20417;-80
2023/06/27 08:22:18;;;;;;;1.20;0.70;;;20.10;96.60;;;;;;4989503;28;20061;-79
2023/06/27 08:24:45;;;;;;;1.55;0.90;;;20.30;96.30;;;;;;5002784;28;20049;-80
2023/06/27 08:27:12;;;;;;;1.08;0.68;;;20.30;95.20;;;;;;4954186;28;20057;-79
2023/06/27 08:29:40;;;;;;;0.80;0.50;;;20.40;95.20;;;;;;4972202;28;20128;-79
2023/06/27 08:32:07;;;;;;;1.90;0.70;;;20.50;95.60;;;;;;4989356;28;20061;-81
2023/06/27 08:34:38;;;;;;;1.55;0.73;;;20.40;94.70;;;;;;4972483;28;20141;-79
2023/06/27 08:37:05;;;;;;;2.30;0.70;;;20.40;94.70;;;;;;4990569;28;20045;-79
2023/06/27 08:39:32;;;;;;;2.63;0.70;;;20.50;94.70;;;;;;4972613;28;20052;-80
2023/06/27 08:41:59;;;;;;;1.08;0.70;;;20.70;94.90;;;;;;4988357;28;20045;-80
2023/06/27 08:44:26;;;;;;;2.22;1.23;;;20.80;94.70;;;;;;4988791;28;20045;-79
2023/06/27 08:46:52;;;;;;;1.75;0.80;;;21.10;93.60;;;;;;4973280;28;20405;-79
2023/06/27 08:49:23;;;;;;;2.53;1.10;;;21.00;93.40;;;;;;4956307;28;20050;-80
2023/06/27 08:51:50;;;;;;;2.20;0.90;;;21.00;93.20;;;;;;4973625;28;20451;-79
2023/06/27 08:54:24;;;;;;;2.30;1.05;;;20.90;93.60;;;;;;4972377;28;20357;-79
2023/06/27 08:56:51;;;;;;;1.70;0.80;;;20.80;93.90;;;;;;4972233;28;20053;-79
2023/06/27 08:59:19;;;;;;;1.40;0.80;;;21.00;94.20;;;;;;4972852;28;20085;-80
2023/06/27 09:01:47;;;;;;;1.80;0.73;;;21.20;94.00;;;;;;4973362;28;20056;-80
2023/06/27 09:04:14;;;;;;;2.83;0.80;;;21.30;94.10;;;;;;4968140;28;20062;-79
2023/06/27 09:06:40;;;;;;;1.50;0.98;;;21.50;93.30;;;;;;4985469;28;20418;-79
2023/06/27 09:09:07;;;;;;;1.35;0.75;;;21.60;93.20;;;;;;4988987;28;20049;-80
2023/06/27 09:11:34;;;;;;;2.17;1.00;;;21.80;92.70;;;;;;4988178;28;20666;-80
2023/06/27 09:14:01;;;;;;;2.17;0.82;;;21.90;92.80;;;;;;4956037;28;20045;-80
2023/06/27 09:16:28;;;;;;;2.88;1.08;;;21.90;92.70;;;;;;4985327;28;20054;-80
2023/06/27 09:18:55;;;;;;;1.00;0.57;;;21.90;92.70;;;;;;4972331;28;20041;-77
2023/06/27 09:21:22;;;;;;;2.30;1.13;;;22.00;91.90;;;;;;4971731;28;20049;-78
2023/06/27 09:23:49;;;;;;;1.50;0.93;;;22.10;91.70;;;;;;4986573;28;20139;-78
2023/06/27 09:26:16;;;;;;;1.83;0.82;;;22.40;91.90;;;;;;4988537;28;20375;-78
2023/06/27 09:28:47;;;;;;;1.02;0.80;;;22.50;91.40;;;;;;5014812;28;20062;-78
2023/06/27 09:31:14;;;;;;;1.42;0.60;;;22.50;90.80;;;;;;4975515;28;20555;-77
2023/06/27 09:33:43;;;;;;;2.33;1.10;;;22.60;91.30;;;;;;4999773;28;20164;-78
2023/06/27 09:36:13;;;;;;;2.17;0.88;;;22.70;90.80;;;;;;4976093;28;20117;-77
2023/06/27 09:38:40;;;;;;;2.80;1.20;;;22.70;90.70;;;;;;4955810;28;20077;-79
2023/06/27 09:41:13;;;;;;;1.38;1.00;;;22.70;90.80;;;;;;4988466;28;20057;-78
2023/06/27 09:43:40;;;;;;;2.60;1.25;;;22.60;90.40;;;;;;4992100;28;20045;-79
2023/06/27 09:46:08;;;;;;;1.95;0.90;;;22.60;90.90;;;;;;5007205;28;20096;-79
2023/06/27 09:48:34;;;;;;;2.58;1.05;;;22.60;91.00;;;;;;4992972;28;20053;-79
2023/06/27 09:51:03;;;;;;;1.40;0.90;;;22.60;91.50;;;;;;4965529;28;20056;-78
2023/06/27 09:53:31;;;;;;;1.63;0.90;;;22.80;91.40;;;;;;4983173;28;20046;-79
2023/06/27 09:56:00;;;;;;;2.10;0.80;;;22.90;90.80;;;;;;4953321;28;20520;-78
2023/06/27 09:58:31;;;;;;;2.92;1.25;;;22.80;90.90;;;;;;4984705;28;20084;-78
2023/06/27 10:01:05;;;;;;;2.13;1.00;;;22.70;91.50;;;;;;4987922;28;20046;-78
2023/06/27 10:03:35;;;;;;;2.22;1.08;;;22.70;91.50;;;;;;4986700;28;20058;-78
2023/06/27 10:06:03;;;;;;;1.40;0.98;;;22.80;91.60;;;;;;4980219;28;20068;-78
2023/06/27 10:08:37;;;;;;;2.08;1.20;;;22.90;91.40;;;;;;4982484;28;20050;-80
2023/06/27 10:11:04;;;;;;;2.17;0.93;;;23.10;91.20;;;;;;4984575;28;20052;-78
2023/06/27 10:13:31;;;;;;;3.20;1.20;;;23.20;91.10;;;;;;5002163;28;20115;-78
2023/06/27 10:15:58;;;;;;;1.77;0.90;;;23.10;91.30;;;;;;4984014;28;20104;-78
2023/06/27 10:18:25;;;;;;;1.48;0.80;;;23.30;90.30;;;;;;4968708;28;20081;-77
2023/06/27 10:20:55;;;;;;;2.15;0.80;;;23.20;90.30;;;;;;4985103;28;20049;-78
2023/06/27 10:23:21;;;;;;;1.48;0.80;;;23.40;90.60;;;;;;4969796;28;20108;-78
2023/06/27 10:25:48;;;;;;;1.77;0.80;;;23.60;90.60;;;;;;4984130;28;20421;-78
2023/06/27 10:28:15;;;;;;;2.05;0.90;;;23.70;90.20;;;;;;4984328;28;20108;-78
2023/06/27 10:30:46;;;;;;;2.33;1.20;;;23.80;89.60;;;;;;4971128;28;20053;-77
2023/06/27 10:33:31;;;;;;;1.98;0.80;;;23.70;90.00;;;;;;4994558;28;20856;-78
2023/06/27 10:36:02;;;;;;;2.92;1.20;;;23.80;89.30;;;;;;4976262;28;20058;-78
2023/06/27 10:38:37;;;;;;;1.03;0.77;;;23.70;89.50;;;;;;4997789;28;20065;-78
2023/06/27 10:41:07;;;;;;;1.33;0.80;;;24.00;89.80;;;;;;5001240;28;20061;-78
2023/06/27 10:43:46;;;;;;;1.90;1.13;;;24.40;88.10;;;;;;5007812;28;20054;-78
2023/06/27 10:46:21;;;;;;;1.30;0.80;;;24.30;86.80;;;;;;5000199;28;20053;-78
2023/06/27 10:48:49;;;;;;;1.25;0.70;;;24.00;87.70;;;;;;5017724;28;20240;-78
2023/06/27 10:51:19;;;;;;;1.35;0.68;;;24.10;86.90;;;;;;4990783;28;20058;-78
2023/06/27 10:54:13;;;;;;;2.55;0.93;;;24.30;87.10;;;;;;4987326;28;20419;-78
2023/06/27 10:56:44;;;;;;;1.38;0.80;;;24.30;87.00;;;;;;4963873;28;20394;-78
2023/06/27 10:59:18;;;;;;;1.05;0.70;;;24.00;86.60;;;;;;4963308;28;20042;-78
2023/06/27 11:02:07;;;;;;;1.85;0.80;;;24.10;88.00;;;;;;4965553;28;20042;-78
2023/06/27 11:04:43;;;;;;;1.40;0.80;;;24.40;87.70;;;;;;4996430;28;20083;-78
2023/06/27 11:07:17;;;;;;;1.77;0.80;;;24.60;87.40;;;;;;4989942;28;20051;-78
2023/06/27 11:09:55;;;;;;;1.67;0.95;;;24.90;86.00;;;;;;4978137;28;20049;-77
2023/06/27 11:12:22;;;;;;;1.20;0.65;;;25.20;85.60;;;;;;4959098;28;20046;-78
2023/06/27 11:14:53;;;;;;;1.45;0.73;;;25.30;85.70;;;;;;4976192;28;20065;-76
2023/06/27 11:17:22;;;;;;;0.82;0.60;;;25.50;85.70;;;;;;4955922;28;20054;-77
2023/06/27 11:19:48;;;;;;;1.35;0.80;;;25.80;83.80;;;;;;4984785;28;20046;-78
2023/06/27 11:22:15;;;;;;;1.55;0.75;;;25.90;84.00;;;;;;4986089;28;20100;-80
2023/06/27 11:24:42;;;;;;;1.35;0.60;;;26.20;83.90;;;;;;4999909;28;20054;-78
2023/06/27 11:27:09;;;;;;;1.45;0.70;;;26.80;83.10;;;;;;4966898;28;20457;-78
2023/06/27 11:29:36;;;;;;;0.90;0.70;;;26.30;84.10;;;;;;4985469;28;20133;-78
2023/06/27 11:32:03;;;;;;;1.38;0.90;;;26.10;83.20;;;;;;4953965;28;20104;-78
2023/06/27 11:34:30;;;;;;;1.70;0.77;;;26.00;82.90;;;;;;4985070;28;20060;-78
2023/06/27 11:36:56;;;;;;;2.10;0.73;;;25.90;81.80;;;;;;4970304;28;20571;-78
2023/06/27 11:39:23;;;;;;;0.90;0.57;;;25.80;81.70;;;;;;4984173;28;20049;-78
2023/06/27 11:41:53;;;;;;;2.00;0.75;;;25.80;82.50;;;;;;4982657;28;20080;-78
2023/06/27 11:44:19;;;;;;;1.60;0.60;;;25.70;82.00;;;;;;4984106;28;20057;-79
2023/06/27 11:46:47;;;;;;;1.13;0.70;;;25.60;82.40;;;;;;5002978;28;20480;-78
2023/06/27 11:49:14;;;;;;;0.77;0.50;;;25.80;82.50;;;;;;4985837;28;20108;-77
2023/06/27 11:51:41;;;;;;;1.25;0.60;;;25.60;82.10;;;;;;4954832;28;20133;-77
2023/06/27 11:54:08;;;;;;;2.70;1.00;;;25.60;82.50;;;;;;4989119;28;20216;-77
2023/06/27 11:56:36;;;;;;;0.98;0.77;;;25.70;81.60;;;;;;4972764;28;20069;-77
2023/06/27 11:59:04;;;;;;;2.25;0.70;;;26.10;81.50;;;;;;4958426;28;20071;-78
2023/06/27 12:01:33;;;;;;;0.70;0.45;;;25.90;81.20;;;;;;4989441;28;20354;-78
2023/06/27 12:04:02;;;;;;;2.05;0.70;;;25.90;82.30;;;;;;5006511;28;20080;-78
2023/06/27 12:06:31;;;;;;;1.00;0.60;;;25.70;80.90;;;;;;5006502;28;20466;-78
2023/06/27 12:08:58;;;;;;;1.05;0.65;;;25.70;81.30;;;;;;4957732;28;20136;-79
2023/06/27 12:11:32;;;;;;;0.93;0.63;;;25.90;81.50;;;;;;4972534;28;20506;-79
2023/06/27 12:13:59;;;;;;;0.60;0.60;;;26.40;79.50;;;;;;5006573;28;20050;-80
2023/06/27 12:16:32;;;;;;;1.35;0.70;;;26.90;79.90;;;;;;4989598;28;20503;-78
2023/06/27 12:19:09;;;;;;;0.85;0.55;;;27.10;78.40;;;;;;4989526;28;20089;-77
2023/06/27 12:21:35;;;;;;;1.02;0.50;;;27.60;77.90;;;;;;4957292;28;20050;-78
2023/06/27 12:24:03;;;;;;;1.67;0.80;;;27.60;78.60;;;;;;4970940;28;20081;-78
2023/06/27 12:26:30;;;;;;;0.60;0.50;;;27.90;78.90;;;;;;4968894;28;20501;-78
2023/06/27 12:28:58;;;;;;;1.77;0.68;;;28.10;79.60;;;;;;5005344;28;20073;-78
2023/06/27 12:31:25;;;;;;;0.60;0.50;;;28.20;78.60;;;;;;4989468;28;20073;-78
2023/06/27 12:33:52;;;;;;;1.48;0.70;;;28.40;78.10;;;;;;5006296;28;20054;-79
2023/06/27 12:36:22;;;;;;;1.55;0.85;;;28.20;77.40;;;;;;5006453;28;20654;-78
2023/06/27 12:38:49;;;;;;;0.85;0.50;;;27.90;77.60;;;;;;4957328;28;20100;-79
2023/06/27 12:41:20;;;;;;;1.30;0.60;;;27.40;77.30;;;;;;4988746;28;20556;-79
2023/06/27 12:43:47;;;;;;;0.50;0.40;;;27.20;77.60;;;;;;4972472;28;20092;-79
2023/06/27 12:46:14;;;;;;;1.23;0.70;;;27.10;78.00;;;;;;4989011;28;20056;-79
2023/06/27 12:48:41;;;;;;;1.05;0.60;;;27.00;78.80;;;;;;4988203;28;20049;-79
2023/06/27 12:51:08;;;;;;;1.30;0.90;;;26.90;78.30;;;;;;4972316;28;20131;-79
2023/06/27 12:53:35;;;;;;;1.45;0.90;;;27.00;78.80;;;;;;4987656;28;20081;-79